Time;durP1;ratioP1;P1;durP2;ratioP2;P2;SDS_P1;SDS_P2;PMS_P1;PMS_P2;Temp;Humidity;BMP_temperature;BMP_pressure;BME280_temperature;BME280_humidity;BME280_pressure;Samples;Min_cycle;Max_cycle;Signal;HPM_P1;HPM_P2
2023/03/02 00:01:18;;;;;;;;;;;5.90;67.60;;;;;;7370895;19;19910;-74
2023/03/02 00:03:44;;;;;;;9.48;5.00;;;6.00;67.90;;;;;;7402000;19;19922;-74
2023/03/02 00:06:11;;;;;;;9.95;5.35;;;6.00;68.40;;;;;;7399694;19;19921;-73
2023/03/02 00:08:38;;;;;;;11.40;5.75;;;6.00;69.30;;;;;;7400097;19;19919;-73
2023/03/02 00:11:04;;;;;;;13.40;5.97;;;6.00;70.60;;;;;;7396988;19;19979;-73
2023/03/02 00:13:33;;;;;;;12.82;5.65;;;6.00;71.20;;;;;;7399639;19;19922;-74
2023/03/02 00:15:58;;;;;;;12.35;5.68;;;6.00;71.70;;;;;;7405226;19;19923;-72
2023/03/02 00:18:25;;;;;;;9.88;5.68;;;6.00;72.30;;;;;;7406360;19;19918;-74
2023/03/02 00:20:51;;;;;;;13.00;6.22;;;6.00;72.70;;;;;;7405075;19;19921;-73
2023/03/02 00:23:17;;;;;;;14.25;6.20;;;6.00;73.30;;;;;;7404268;19;19914;-73
2023/03/02 00:25:44;;;;;;;13.43;6.63;;;5.90;74.00;;;;;;7404190;19;19921;-73
2023/03/02 00:28:10;;;;;;;11.80;6.47;;;6.00;74.00;;;;;;7375556;19;19911;-72
2023/03/02 00:30:37;;;;;;;13.75;6.80;;;6.00;74.00;;;;;;7406785;19;19917;-71
2023/03/02 00:33:03;;;;;;;12.73;5.88;;;5.80;74.60;;;;;;7406042;19;19926;-72
2023/03/02 00:35:29;;;;;;;14.35;7.30;;;5.90;75.30;;;;;;7405292;19;19906;-72
2023/03/02 00:37:55;;;;;;;12.73;6.22;;;5.90;75.20;;;;;;7405792;19;20252;-72
2023/03/02 00:40:21;;;;;;;14.85;7.32;;;5.90;75.00;;;;;;7402563;19;20333;-74
2023/03/02 00:42:46;;;;;;;16.50;7.72;;;5.90;74.90;;;;;;7411314;19;20251;-73
2023/03/02 00:45:12;;;;;;;11.68;6.18;;;5.90;74.40;;;;;;7405789;19;19950;-72
2023/03/02 00:47:39;;;;;;;12.02;6.68;;;5.80;74.50;;;;;;7385131;19;19922;-73
2023/03/02 00:50:05;;;;;;;14.60;6.90;;;5.90;73.60;;;;;;7407554;19;20610;-76
2023/03/02 00:52:32;;;;;;;13.35;6.80;;;5.80;72.80;;;;;;7405912;19;19907;-73
2023/03/02 00:54:58;;;;;;;11.93;6.55;;;5.80;72.60;;;;;;7404231;19;19922;-73
2023/03/02 00:57:24;;;;;;;12.73;6.57;;;5.80;72.70;;;;;;7383504;19;19914;-73
2023/03/02 00:59:50;;;;;;;13.27;6.03;;;5.80;71.80;;;;;;7403643;19;19919;-73
2023/03/02 01:02:16;;;;;;;11.20;6.43;;;5.80;71.40;;;;;;7399857;19;19923;-72
2023/03/02 01:04:43;;;;;;;12.40;6.60;;;5.80;70.70;;;;;;7404171;19;19915;-74
2023/03/02 01:07:12;;;;;;;12.95;7.18;;;5.80;70.60;;;;;;7399517;19;20338;-72
2023/03/02 01:09:41;;;;;;;11.68;5.90;;;5.80;70.50;;;;;;7403799;19;20394;-72
2023/03/02 01:12:09;;;;;;;11.65;5.93;;;5.80;70.60;;;;;;7404811;19;19925;-73
2023/03/02 01:14:41;;;;;;;11.75;5.72;;;5.80;70.90;;;;;;7404770;19;19923;-73
2023/03/02 01:17:09;;;;;;;12.82;6.05;;;5.80;71.00;;;;;;7403572;19;20250;-72
2023/03/02 01:19:36;;;;;;;10.05;5.40;;;5.80;71.10;;;;;;7405736;19;20246;-73
2023/03/02 01:22:02;;;;;;;11.43;6.50;;;5.80;71.40;;;;;;7401580;19;19924;-72
2023/03/02 01:24:28;;;;;;;10.45;5.50;;;5.80;71.40;;;;;;7405546;19;19937;-72
2023/03/02 01:26:54;;;;;;;11.77;6.10;;;5.80;71.30;;;;;;7403377;19;19911;-73
2023/03/02 01:29:20;;;;;;;11.73;6.35;;;5.80;71.00;;;;;;7404884;19;19925;-73
2023/03/02 01:31:46;;;;;;;12.77;5.63;;;5.80;70.70;;;;;;7402135;19;19914;-73
2023/03/02 01:34:12;;;;;;;11.60;5.97;;;5.70;70.50;;;;;;7404135;19;19941;-73
2023/03/02 01:36:38;;;;;;;11.30;6.30;;;5.80;70.70;;;;;;7400882;19;19951;-73
2023/03/02 01:39:04;;;;;;;11.02;5.70;;;5.70;70.40;;;;;;7401726;19;19940;-73
2023/03/02 01:41:30;;;;;;;10.75;6.03;;;5.70;70.50;;;;;;7404563;19;19939;-72
2023/03/02 01:43:56;;;;;;;11.45;5.75;;;5.60;70.80;;;;;;7403754;19;19918;-72
2023/03/02 01:46:33;;;;;;;9.68;5.57;;;5.60;70.70;;;;;;7401382;19;21046;-72
2023/03/02 01:49:13;;;;;;;11.60;5.40;;;5.70;71.10;;;;;;7402929;19;19971;-72
2023/03/02 01:51:45;;;;;;;10.70;5.40;;;5.70;71.60;;;;;;7402479;19;19950;-73
2023/03/02 01:54:21;;;;;;;11.38;5.28;;;5.70;72.40;;;;;;7401857;19;19911;-73
2023/03/02 01:56:49;;;;;;;13.13;5.10;;;5.80;73.20;;;;;;7403553;19;19915;-73
2023/03/02 01:59:20;;;;;;;11.48;5.45;;;5.80;74.20;;;;;;7403168;19;19974;-72
2023/03/02 02:01:51;;;;;;;12.48;5.75;;;5.80;74.50;;;;;;7403087;19;19914;-72
2023/03/02 02:04:18;;;;;;;9.77;5.05;;;5.80;74.20;;;;;;7403029;19;19926;-73
2023/03/02 02:06:49;;;;;;;10.15;4.85;;;5.80;75.00;;;;;;7405081;19;20281;-72
2023/03/02 02:09:18;;;;;;;9.02;4.70;;;5.80;75.30;;;;;;7402921;19;19978;-73
2023/03/02 02:11:44;;;;;;;9.98;4.68;;;5.80;75.80;;;;;;7402574;19;19972;-73
2023/03/02 02:14:11;;;;;;;9.77;4.65;;;5.80;76.60;;;;;;7401459;19;19906;-73
2023/03/02 02:16:38;;;;;;;11.05;4.78;;;5.90;77.30;;;;;;7404386;19;19939;-72
2023/03/02 02:19:32;;;;;;;12.52;4.93;;;5.90;77.50;;;;;;7402514;19;21023;-74
2023/03/02 02:21:58;;;;;;;11.95;4.68;;;5.90;77.70;;;;;;7400235;19;20252;-73
2023/03/02 02:24:35;;;;;;;12.63;4.43;;;6.00;78.50;;;;;;7400595;19;19919;-72
2023/03/02 02:27:02;;;;;;;10.20;4.25;;;5.90;78.90;;;;;;7404063;19;19918;-71
2023/03/02 02:29:34;;;;;;;9.27;3.90;;;6.00;80.10;;;;;;7400374;19;19918;-73
2023/03/02 02:32:11;;;;;;;10.55;3.80;;;6.00;80.50;;;;;;7403596;19;19926;-72
2023/03/02 02:34:44;;;;;;;10.40;4.20;;;6.10;80.70;;;;;;7402984;19;19931;-73
2023/03/02 02:37:25;;;;;;;7.90;4.43;;;6.20;81.20;;;;;;7400222;19;20650;-72
2023/03/02 02:39:51;;;;;;;8.85;3.88;;;6.30;81.70;;;;;;7403577;19;19914;-72
2023/03/02 02:42:31;;;;;;;11.00;3.88;;;6.30;81.70;;;;;;7402969;19;19929;-73
2023/03/02 02:45:00;;;;;;;9.30;4.40;;;6.50;82.40;;;;;;7373025;19;19952;-73
2023/03/02 02:47:29;;;;;;;7.00;3.70;;;6.60;82.20;;;;;;7401415;19;19935;-77
2023/03/02 02:49:55;;;;;;;9.57;4.75;;;6.60;81.90;;;;;;7402286;19;19927;-74
2023/03/02 02:52:25;;;;;;;9.02;4.15;;;6.70;82.00;;;;;;7400234;19;19918;-72
2023/03/02 02:54:55;;;;;;;6.53;3.67;;;6.70;81.90;;;;;;7400855;19;19931;-73
2023/03/02 02:57:24;;;;;;;9.07;4.07;;;6.70;81.70;;;;;;7402367;19;20244;-72
2023/03/02 02:59:56;;;;;;;11.52;5.28;;;6.80;81.80;;;;;;7402427;19;19915;-72
2023/03/02 03:02:29;;;;;;;10.57;3.75;;;6.80;81.90;;;;;;7400029;19;20146;-73
2023/03/02 03:05:02;;;;;;;8.80;4.22;;;6.80;82.10;;;;;;7399588;19;19939;-73
2023/03/02 03:07:30;;;;;;;8.60;4.07;;;6.80;82.30;;;;;;7366209;19;19923;-73
2023/03/02 03:10:09;;;;;;;7.03;3.92;;;6.80;82.30;;;;;;7401877;19;20281;-72
2023/03/02 03:12:37;;;;;;;8.68;4.50;;;6.80;82.40;;;;;;7399017;19;19978;-71
2023/03/02 03:15:04;;;;;;;7.63;4.05;;;6.80;82.40;;;;;;7400403;19;20608;-73
2023/03/02 03:17:31;;;;;;;8.07;4.22;;;6.80;82.20;;;;;;7401982;19;19915;-72
2023/03/02 03:20:05;;;;;;;9.50;4.70;;;6.80;83.00;;;;;;7401365;19;19918;-72
2023/03/02 03:22:34;;;;;;;9.32;4.78;;;6.80;82.10;;;;;;7399798;19;19922;-72
2023/03/02 03:25:00;;;;;;;9.80;4.88;;;6.80;81.80;;;;;;7399626;19;19913;-73
2023/03/02 03:27:26;;;;;;;10.77;4.60;;;6.70;81.90;;;;;;7399673;19;20338;-72
2023/03/02 03:29:51;;;;;;;8.73;4.25;;;6.70;82.90;;;;;;7400735;19;20017;-73
2023/03/02 03:32:18;;;;;;;9.02;4.20;;;6.70;82.50;;;;;;7399865;19;19915;-72
2023/03/02 03:34:45;;;;;;;9.40;4.57;;;6.70;82.60;;;;;;7400495;19;20000;-72
2023/03/02 03:37:15;;;;;;;8.50;3.90;;;6.70;82.70;;;;;;7399262;19;19922;-73
2023/03/02 03:39:41;;;;;;;10.77;4.38;;;6.80;83.00;;;;;;7399874;19;19925;-73
2023/03/02 03:42:08;;;;;;;10.40;4.20;;;6.80;83.00;;;;;;7399445;19;20338;-72
2023/03/02 03:44:34;;;;;;;10.10;4.63;;;6.90;83.00;;;;;;7397838;19;20315;-73
2023/03/02 03:47:00;;;;;;;9.80;4.97;;;6.90;83.00;;;;;;7401499;19;19911;-72
2023/03/02 03:49:26;;;;;;;9.60;4.43;;;7.00;82.80;;;;;;7400999;19;19915;-72
2023/03/02 03:51:52;;;;;;;10.18;4.25;;;7.00;82.50;;;;;;7409480;19;20521;-72
2023/03/02 03:54:18;;;;;;;10.13;4.30;;;7.10;82.50;;;;;;7404559;19;19926;-72
2023/03/02 03:56:47;;;;;;;8.95;4.22;;;7.10;82.20;;;;;;7405847;19;20363;-73
2023/03/02 03:59:16;;;;;;;9.05;4.70;;;7.10;82.00;;;;;;7350900;19;19937;-73
2023/03/02 04:01:45;;;;;;;11.75;4.18;;;7.10;81.90;;;;;;7405185;19;19925;-73
2023/03/02 04:04:20;;;;;;;9.80;4.30;;;7.10;81.70;;;;;;7406133;19;19936;-73
2023/03/02 04:06:47;;;;;;;8.80;4.32;;;7.10;81.60;;;;;;7405935;19;19911;-72
2023/03/02 04:09:14;;;;;;;9.40;4.43;;;7.10;81.80;;;;;;7405015;19;19952;-72
2023/03/02 04:11:42;;;;;;;10.82;4.65;;;7.10;81.70;;;;;;7404926;19;19922;-73
2023/03/02 04:14:09;;;;;;;10.82;4.38;;;7.00;81.50;;;;;;7401666;19;19915;-73
2023/03/02 04:16:36;;;;;;;10.77;4.47;;;7.10;81.60;;;;;;7405753;19;19926;-73
2023/03/02 04:19:08;;;;;;;10.63;4.20;;;7.00;81.60;;;;;;7384188;19;19922;-72
2023/03/02 04:21:39;;;;;;;7.63;4.13;;;7.00;81.70;;;;;;7403686;19;19918;-72
2023/03/02 04:24:07;;;;;;;9.00;4.07;;;7.10;81.80;;;;;;7402079;19;19922;-72
2023/03/02 04:26:34;;;;;;;7.63;3.70;;;7.10;81.60;;;;;;7403953;19;19922;-72
2023/03/02 04:29:01;;;;;;;11.55;4.25;;;7.10;81.60;;;;;;7401914;19;20652;-72
2023/03/02 04:31:30;;;;;;;10.98;4.90;;;7.10;81.70;;;;;;7407087;19;20334;-72
2023/03/02 04:33:56;;;;;;;8.52;4.20;;;7.10;81.70;;;;;;7405018;19;19926;-73
2023/03/02 04:36:22;;;;;;;9.23;4.38;;;7.10;81.70;;;;;;7404286;19;19975;-73
2023/03/02 04:38:50;;;;;;;8.48;3.78;;;7.10;81.80;;;;;;7380792;19;20311;-73
2023/03/02 04:41:16;;;;;;;7.47;3.88;;;7.10;81.90;;;;;;7404019;19;19946;-72
2023/03/02 04:43:42;;;;;;;9.30;4.13;;;7.20;81.90;;;;;;7405295;19;19915;-72
2023/03/02 04:46:14;;;;;;;6.95;3.75;;;7.20;81.90;;;;;;7402162;19;19966;-73
2023/03/02 04:48:40;;;;;;;9.52;3.80;;;7.20;81.80;;;;;;7403827;19;19947;-72
2023/03/02 04:51:05;;;;;;;10.32;3.88;;;7.20;81.90;;;;;;7402524;19;19918;-73
2023/03/02 04:53:31;;;;;;;7.90;3.80;;;7.20;82.00;;;;;;7405966;19;19925;-72
2023/03/02 04:55:59;;;;;;;8.30;4.05;;;7.20;81.90;;;;;;7373366;19;19918;-73
2023/03/02 04:58:25;;;;;;;7.88;3.42;;;7.10;82.00;;;;;;7373496;19;19910;-72
2023/03/02 05:00:50;;;;;;;7.57;3.78;;;7.10;82.20;;;;;;7402556;19;19921;-72
2023/03/02 05:03:16;;;;;;;10.20;4.15;;;7.10;82.30;;;;;;7403608;19;19923;-72
2023/03/02 05:05:43;;;;;;;9.07;4.32;;;7.00;82.20;;;;;;7405662;19;19927;-74
2023/03/02 05:08:09;;;;;;;8.38;4.00;;;7.00;82.50;;;;;;7402344;19;19933;-72
2023/03/02 05:10:35;;;;;;;10.40;4.72;;;6.90;82.80;;;;;;7406426;19;19919;-74
2023/03/02 05:13:04;;;;;;;10.95;4.00;;;6.90;83.10;;;;;;7404596;19;19921;-72
2023/03/02 05:15:32;;;;;;;8.48;3.83;;;6.80;83.20;;;;;;7401935;19;19951;-72
2023/03/02 05:17:59;;;;;;;8.73;4.18;;;6.80;83.60;;;;;;7404471;19;20340;-73
2023/03/02 05:20:26;;;;;;;7.80;3.78;;;6.80;84.10;;;;;;7407580;19;19927;-72
2023/03/02 05:23:02;;;;;;;8.80;4.47;;;6.80;84.00;;;;;;7403191;19;19915;-72
2023/03/02 05:25:30;;;;;;;8.02;3.80;;;6.80;83.90;;;;;;7405201;19;19935;-73
2023/03/02 05:27:56;;;;;;;10.00;4.60;;;6.80;84.00;;;;;;7403344;19;20223;-73
2023/03/02 05:30:23;;;;;;;10.15;4.53;;;6.80;84.00;;;;;;7402625;19;19926;-72
2023/03/02 05:32:50;;;;;;;8.77;4.22;;;6.70;83.60;;;;;;7401730;19;20327;-73
2023/03/02 05:35:16;;;;;;;9.43;4.45;;;6.60;83.70;;;;;;7403003;19;19925;-73
2023/03/02 05:37:43;;;;;;;8.18;4.57;;;6.60;83.60;;;;;;7402187;19;19918;-72
2023/03/02 05:40:14;;;;;;;10.55;4.32;;;6.50;83.50;;;;;;7403038;19;19954;-74
2023/03/02 05:42:41;;;;;;;8.30;4.60;;;6.50;83.50;;;;;;7401977;19;19914;-72
2023/03/02 05:45:12;;;;;;;10.45;4.68;;;6.50;83.50;;;;;;7403303;19;20310;-73
2023/03/02 05:47:38;;;;;;;8.90;5.00;;;6.50;83.80;;;;;;7403141;19;20371;-73
2023/03/02 05:50:04;;;;;;;10.13;4.93;;;6.40;83.60;;;;;;7403126;19;19919;-72
2023/03/02 05:52:30;;;;;;;8.50;4.80;;;6.40;83.50;;;;;;7401135;19;19915;-72
2023/03/02 05:54:56;;;;;;;9.80;5.43;;;6.40;83.30;;;;;;7405218;19;19922;-73
2023/03/02 05:57:22;;;;;;;9.38;5.05;;;6.40;83.00;;;;;;7400023;19;20290;-72
2023/03/02 05:59:49;;;;;;;10.75;5.00;;;6.30;82.50;;;;;;7405286;19;19914;-73
2023/03/02 06:02:15;;;;;;;11.73;5.55;;;6.30;82.30;;;;;;7400119;19;19922;-73
2023/03/02 06:04:43;;;;;;;13.00;4.93;;;6.30;82.20;;;;;;7404633;19;19923;-73
2023/03/02 06:07:12;;;;;;;11.88;4.93;;;6.30;81.70;;;;;;7400704;19;19914;-73
2023/03/02 06:09:38;;;;;;;8.73;4.82;;;6.20;81.90;;;;;;7381380;19;19919;-72
2023/03/02 06:12:05;;;;;;;10.38;5.28;;;6.20;82.10;;;;;;7396293;19;19910;-73
2023/03/02 06:14:31;;;;;;;8.15;4.45;;;6.20;81.90;;;;;;7405494;19;19929;-73
2023/03/02 06:16:56;;;;;;;12.88;5.10;;;6.10;82.00;;;;;;7401321;19;19911;-73
2023/03/02 06:19:23;;;;;;;11.23;5.68;;;6.10;82.10;;;;;;7406043;19;19933;-75
2023/03/02 06:21:49;;;;;;;10.98;4.90;;;6.10;82.50;;;;;;7403037;19;20465;-74
2023/03/02 06:24:15;;;;;;;8.25;4.85;;;6.00;82.30;;;;;;7403566;19;19922;-72
2023/03/02 06:26:43;;;;;;;10.25;4.70;;;6.00;82.50;;;;;;7400457;19;19919;-73
2023/03/02 06:29:10;;;;;;;11.88;5.00;;;6.00;83.00;;;;;;7400490;19;19930;-73
2023/03/02 06:31:35;;;;;;;10.95;5.13;;;6.10;82.60;;;;;;7403554;19;19931;-73
2023/03/02 06:34:01;;;;;;;10.43;5.15;;;6.00;82.70;;;;;;7402381;19;20383;-74
2023/03/02 06:36:27;;;;;;;10.65;5.07;;;6.00;82.90;;;;;;7401640;19;19922;-72
2023/03/02 06:38:53;;;;;;;7.97;5.07;;;6.00;82.90;;;;;;7404421;19;19922;-72
2023/03/02 06:41:21;;;;;;;10.88;4.90;;;6.10;82.90;;;;;;7402262;19;19914;-73
2023/03/02 06:43:47;;;;;;;11.48;5.05;;;6.10;82.70;;;;;;7402903;19;19982;-73
2023/03/02 06:46:12;;;;;;;11.02;5.18;;;6.00;82.60;;;;;;7403156;19;19952;-73
2023/03/02 06:48:38;;;;;;;12.52;5.50;;;6.00;82.90;;;;;;7404069;19;20349;-72
2023/03/02 06:51:06;;;;;;;12.18;5.30;;;6.10;82.50;;;;;;7399350;19;19919;-72
2023/03/02 06:53:34;;;;;;;12.20;5.50;;;6.20;82.00;;;;;;7404503;19;20264;-72
2023/03/02 06:56:00;;;;;;;10.45;5.43;;;6.20;81.70;;;;;;7400210;19;20339;-72
2023/03/02 06:58:25;;;;;;;11.75;5.95;;;6.30;81.40;;;;;;7401785;19;19923;-73
2023/03/02 07:00:51;;;;;;;12.32;5.82;;;6.30;81.30;;;;;;7399397;19;20354;-73
2023/03/02 07:03:17;;;;;;;10.07;5.38;;;6.40;80.90;;;;;;7400315;19;19915;-72
2023/03/02 07:05:43;;;;;;;9.38;5.22;;;6.40;81.00;;;;;;7399941;19;20373;-72
2023/03/02 07:08:09;;;;;;;11.15;5.78;;;6.50;81.10;;;;;;7368400;19;20453;-73
2023/03/02 07:10:36;;;;;;;10.70;5.28;;;6.60;81.10;;;;;;7401791;19;19922;-75
2023/03/02 07:13:02;;;;;;;12.70;5.18;;;6.70;81.00;;;;;;7401477;19;19922;-73
2023/03/02 07:15:28;;;;;;;10.38;6.05;;;6.70;80.90;;;;;;7397972;19;19919;-73
2023/03/02 07:17:54;;;;;;;8.82;5.05;;;6.90;80.60;;;;;;7400754;19;19999;-72
2023/03/02 07:20:20;;;;;;;12.32;6.53;;;7.00;80.40;;;;;;7397377;19;19943;-73
2023/03/02 07:22:45;;;;;;;12.52;5.90;;;7.10;80.20;;;;;;7401427;19;19938;-73
2023/03/02 07:25:12;;;;;;;10.65;5.85;;;7.10;79.70;;;;;;7370275;19;19914;-73
2023/03/02 07:27:38;;;;;;;12.13;5.70;;;7.20;79.50;;;;;;7406434;19;20239;-73
2023/03/02 07:30:06;;;;;;;11.35;5.50;;;7.30;79.20;;;;;;7405509;19;19948;-73
2023/03/02 07:32:32;;;;;;;12.88;6.32;;;7.40;79.00;;;;;;7409308;19;19914;-72
2023/03/02 07:34:58;;;;;;;11.45;5.95;;;7.50;78.40;;;;;;7374829;19;19966;-73
2023/03/02 07:37:23;;;;;;;15.35;8.20;;;7.50;78.40;;;;;;7343972;19;19908;-73
2023/03/02 07:39:49;;;;;;;10.65;5.28;;;7.50;78.20;;;;;;7407844;19;19919;-74
2023/03/02 07:42:16;;;;;;;11.73;5.40;;;7.60;78.60;;;;;;7406761;19;19922;-72
2023/03/02 07:44:42;;;;;;;12.73;6.10;;;7.70;78.70;;;;;;7407560;19;19974;-72
2023/03/02 07:47:08;;;;;;;10.23;5.32;;;7.80;77.90;;;;;;7405066;19;19935;-73
2023/03/02 07:49:36;;;;;;;15.07;5.78;;;7.80;77.60;;;;;;7407845;19;19929;-73
2023/03/02 07:52:03;;;;;;;12.38;6.00;;;7.70;77.60;;;;;;7406549;19;19938;-73
2023/03/02 07:54:30;;;;;;;9.70;5.30;;;7.80;77.40;;;;;;7405831;19;19914;-74
2023/03/02 07:56:57;;;;;;;10.95;5.95;;;7.70;76.80;;;;;;7409530;19;19926;-72
2023/03/02 07:59:23;;;;;;;10.63;5.72;;;7.60;76.90;;;;;;7403857;19;19946;-71
2023/03/02 08:01:49;;;;;;;11.05;5.75;;;7.60;76.50;;;;;;7407666;19;19923;-72
2023/03/02 08:04:15;;;;;;;9.20;5.30;;;7.60;76.90;;;;;;7374822;19;20436;-72
2023/03/02 08:06:41;;;;;;;10.85;5.80;;;7.50;76.70;;;;;;7405055;19;20323;-73
2023/03/02 08:09:06;;;;;;;9.18;5.40;;;7.30;76.40;;;;;;7403296;19;20259;-73
2023/03/02 08:11:32;;;;;;;15.57;5.80;;;7.30;77.00;;;;;;7376793;19;19918;-73
2023/03/02 08:14:00;;;;;;;14.55;6.35;;;7.40;76.70;;;;;;7405172;19;19922;-73
2023/03/02 08:16:26;;;;;;;11.00;5.72;;;7.60;76.40;;;;;;7405562;19;19921;-73
2023/03/02 08:18:52;;;;;;;12.77;5.38;;;7.70;75.60;;;;;;7404002;19;19925;-72
2023/03/02 08:21:21;;;;;;;12.68;6.45;;;7.60;74.70;;;;;;7396051;19;19918;-73
2023/03/02 08:23:48;;;;;;;13.68;6.70;;;7.50;74.00;;;;;;7402766;19;19923;-74
2023/03/02 08:26:14;;;;;;;10.55;5.72;;;7.60;73.80;;;;;;7404778;19;19914;-72
2023/03/02 08:28:42;;;;;;;9.88;5.10;;;7.70;73.80;;;;;;7383566;19;20288;-73
2023/03/02 08:31:08;;;;;;;11.35;6.13;;;7.60;73.20;;;;;;7404607;19;19919;-72
2023/03/02 08:33:35;;;;;;;10.80;5.53;;;7.80;73.20;;;;;;7405460;19;19919;-72
2023/03/02 08:36:05;;;;;;;11.25;5.85;;;7.70;73.40;;;;;;7403934;19;20353;-73
2023/03/02 08:38:31;;;;;;;10.88;5.72;;;7.90;73.40;;;;;;7403371;19;19930;-73
2023/03/02 08:40:58;;;;;;;12.45;6.15;;;7.90;72.90;;;;;;7404604;19;20255;-74
2023/03/02 08:43:25;;;;;;;12.60;7.20;;;7.80;73.00;;;;;;7401012;19;19982;-73
2023/03/02 08:45:52;;;;;;;12.70;6.20;;;7.90;72.30;;;;;;7405634;19;19918;-73
2023/03/02 08:48:21;;;;;;;12.07;5.95;;;7.80;71.60;;;;;;7404476;19;19918;-72
2023/03/02 08:50:57;;;;;;;11.07;6.30;;;7.90;72.20;;;;;;7397679;19;19955;-73
2023/03/02 08:53:25;;;;;;;31.13;14.77;;;8.10;71.00;;;;;;7395715;19;19959;-73
2023/03/02 08:55:51;;;;;;;13.80;7.25;;;8.40;70.70;;;;;;7402732;19;19922;-74
2023/03/02 08:58:17;;;;;;;13.55;5.78;;;8.60;70.60;;;;;;7376562;19;19949;-74
2023/03/02 09:00:43;;;;;;;10.73;5.18;;;8.50;69.60;;;;;;7404667;19;19919;-74
2023/03/02 09:03:09;;;;;;;10.60;5.78;;;8.70;69.80;;;;;;7402977;19;20335;-74
2023/03/02 09:05:35;;;;;;;10.27;5.95;;;8.50;69.20;;;;;;7401446;19;19915;-73
2023/03/02 09:08:02;;;;;;;10.30;5.55;;;8.60;69.80;;;;;;7405137;19;20472;-73
2023/03/02 09:10:28;;;;;;;10.80;5.72;;;8.50;69.90;;;;;;7404206;19;20265;-73
2023/03/02 09:12:54;;;;;;;9.68;5.38;;;8.60;69.50;;;;;;7400920;19;19914;-73
2023/03/02 09:15:20;;;;;;;11.85;5.95;;;8.80;69.30;;;;;;7385257;19;19915;-73
2023/03/02 09:17:45;;;;;;;10.43;6.03;;;8.80;69.40;;;;;;7399517;19;20331;-73
2023/03/02 09:20:13;;;;;;;10.27;6.25;;;9.00;69.10;;;;;;7391305;19;19978;-73
2023/03/02 09:22:39;;;;;;;;;;;9.40;68.50;;;;;;7389019;19;20632;-73
2023/03/02 09:25:06;;;;;;;10.65;5.82;;;9.70;67.70;;;;;;7374695;19;19951;-73
2023/03/02 09:27:31;;;;;;;10.18;5.82;;;10.20;67.10;;;;;;7393088;19;20347;-73
2023/03/02 09:29:59;;;;;;;11.73;6.18;;;10.70;66.20;;;;;;7397018;19;19939;-74
2023/03/02 09:32:25;;;;;;;12.30;5.82;;;11.10;64.60;;;;;;7388055;19;19927;-75
2023/03/02 09:34:51;;;;;;;11.75;6.13;;;11.40;64.20;;;;;;7378764;19;19925;-73
2023/03/02 09:37:17;;;;;;;11.82;6.07;;;11.70;63.30;;;;;;7398818;19;20034;-73
2023/03/02 09:39:43;;;;;;;11.00;6.20;;;12.40;62.40;;;;;;7352745;19;19981;-73
2023/03/02 09:42:30;;;;;;;12.25;6.35;;;12.70;61.20;;;;;;7378531;19;19922;-74
2023/03/02 09:45:20;;;;;;;10.38;6.40;;;13.00;60.50;;;;;;7398420;19;19935;-75
2023/03/02 09:48:08;;;;;;;9.82;6.35;;;13.00;60.90;;;;;;7378983;19;20000;-73
2023/03/02 09:50:41;;;;;;;10.13;6.80;;;12.90;60.90;;;;;;7398185;19;20303;-75
2023/03/02 09:53:51;;;;;;;;;;;12.50;61.00;;;;;;7407631;19;19919;-73
2023/03/02 09:56:18;;;;;;;9.98;6.00;;;12.20;61.80;;;;;;7387974;19;19919;-74
2023/03/02 09:58:55;;;;;;;12.65;7.07;;;12.10;61.90;;;;;;7402626;19;19923;-74
2023/03/02 10:01:52;;;;;;;15.73;6.93;;;11.90;62.60;;;;;;7394330;19;19922;-74
2023/03/02 10:04:28;;;;;;;13.25;7.47;;;12.00;62.60;;;;;;7395592;19;19914;-76
2023/03/02 10:07:09;;;;;;;12.25;6.53;;;11.90;62.80;;;;;;7378816;19;19914;-73
2023/03/02 10:09:35;;;;;;;11.95;6.57;;;11.70;62.90;;;;;;7400967;19;19929;-74
2023/03/02 10:12:22;;;;;;;11.30;6.90;;;11.70;63.00;;;;;;7400237;19;19914;-75
2023/03/02 10:15:00;;;;;;;11.65;6.55;;;11.60;63.30;;;;;;7398955;19;20415;-74
2023/03/02 10:17:56;;;;;;;14.80;7.43;;;11.60;63.50;;;;;;7388733;19;19914;-74
2023/03/02 10:20:55;;;;;;;14.68;6.82;;;11.70;63.80;;;;;;7397063;19;19930;-73
2023/03/02 10:23:27;;;;;;;15.88;6.70;;;11.80;63.40;;;;;;7401183;19;19974;-74
2023/03/02 10:26:04;;;;;;;12.27;6.80;;;11.90;63.30;;;;;;7403866;19;19910;-73
2023/03/02 10:28:48;;;;;;;12.48;6.65;;;11.90;63.20;;;;;;7393714;19;19922;-74
2023/03/02 10:31:32;;;;;;;10.48;6.40;;;12.00;63.10;;;;;;7399067;19;19911;-74
2023/03/02 10:33:59;;;;;;;12.65;6.68;;;12.30;62.60;;;;;;7395296;19;20334;-74
2023/03/02 10:36:36;;;;;;;12.00;7.10;;;12.50;62.20;;;;;;7393074;19;20386;-74
2023/03/02 10:39:06;;;;;;;10.98;5.90;;;12.50;62.20;;;;;;7398023;19;19922;-75
2023/03/02 10:41:40;;;;;;;13.82;6.68;;;12.30;61.40;;;;;;7366628;19;19914;-74
2023/03/02 10:44:36;;;;;;;11.65;7.07;;;11.50;62.70;;;;;;7404508;19;19959;-75
2023/03/02 10:47:03;;;;;;;12.43;6.70;;;11.90;62.70;;;;;;7398705;19;19915;-73
2023/03/02 10:49:32;;;;;;;14.40;7.15;;;11.90;62.30;;;;;;7396038;19;20455;-74
2023/03/02 10:52:00;;;;;;;11.23;7.22;;;11.90;62.60;;;;;;7386670;19;20012;-73
2023/03/02 10:54:28;;;;;;;10.20;6.47;;;11.90;62.00;;;;;;7394312;19;19933;-74
2023/03/02 10:56:58;;;;;;;12.20;7.40;;;11.80;63.00;;;;;;7400646;19;19919;-73
2023/03/02 10:59:42;;;;;;;11.35;6.45;;;11.90;62.30;;;;;;7404013;19;20639;-74
2023/03/02 11:02:17;;;;;;;10.63;6.90;;;11.70;62.90;;;;;;7398001;19;20249;-73
2023/03/02 11:04:43;;;;;;;11.90;7.22;;;11.80;62.90;;;;;;7391462;19;19914;-73
2023/03/02 11:07:14;;;;;;;14.68;7.68;;;11.90;62.80;;;;;;7365232;19;20337;-73
2023/03/02 11:09:55;;;;;;;13.27;7.15;;;11.80;62.50;;;;;;7375084;19;19982;-73
2023/03/02 11:12:22;;;;;;;14.82;7.45;;;12.30;62.20;;;;;;7393950;19;20284;-73
2023/03/02 11:15:00;;;;;;;10.75;6.75;;;12.10;61.30;;;;;;7395417;19;19922;-73
2023/03/02 11:17:32;;;;;;;12.88;7.70;;;12.40;61.70;;;;;;7396153;19;19938;-73
2023/03/02 11:19:59;;;;;;;;;;;12.50;61.40;;;;;;7400316;19;20262;-74
2023/03/02 11:22:31;;;;;;;11.98;7.28;;;12.70;60.60;;;;;;7393605;19;20327;-73
2023/03/02 11:25:02;;;;;;;11.68;7.57;;;13.10;60.30;;;;;;7397410;19;20323;-74
2023/03/02 11:27:32;;;;;;;14.13;7.70;;;12.80;59.70;;;;;;7397894;19;20227;-74
2023/03/02 11:30:25;;;;;;;12.90;7.70;;;12.80;60.00;;;;;;7391118;19;19935;-73
2023/03/02 11:32:59;;;;;;;11.40;6.88;;;13.40;60.70;;;;;;7390163;19;19929;-73
2023/03/02 11:35:42;;;;;;;9.38;7.00;;;13.30;60.80;;;;;;7401992;19;20789;-75
2023/03/02 11:38:25;;;;;;;10.82;6.57;;;13.40;60.30;;;;;;7393064;19;19923;-73
2023/03/02 11:40:57;;;;;;;9.43;6.40;;;13.40;60.30;;;;;;7400272;19;20229;-74
2023/03/02 11:43:23;;;;;;;10.63;6.90;;;13.50;59.90;;;;;;7361703;19;19943;-74
2023/03/02 11:45:59;;;;;;;9.68;6.53;;;13.40;59.70;;;;;;7393374;19;20271;-74
2023/03/02 11:49:02;;;;;;;12.00;6.18;;;13.20;61.10;;;;;;7385965;19;20394;-73
2023/03/02 11:51:34;;;;;;;10.52;5.65;;;12.90;61.90;;;;;;7365625;19;20505;-74
2023/03/02 11:54:04;;;;;;;8.15;5.10;;;12.70;63.00;;;;;;7391638;19;19914;-73
2023/03/02 11:56:36;;;;;;;9.30;5.30;;;12.70;63.80;;;;;;7389366;19;19974;-74
2023/03/02 11:59:09;;;;;;;12.38;5.90;;;12.50;64.60;;;;;;7385352;19;19939;-73
2023/03/02 12:01:37;;;;;;;;;;;11.90;65.70;;;;;;7398898;19;19919;-74
2023/03/02 12:04:33;;;;;;;10.65;5.07;;;12.20;65.90;;;;;;7382531;19;19919;-73
2023/03/02 12:07:02;;;;;;;10.50;5.82;;;12.10;65.70;;;;;;7396634;19;19918;-72
2023/03/02 12:09:33;;;;;;;14.07;6.10;;;11.80;66.10;;;;;;7391433;19;19919;-74
2023/03/02 12:12:25;;;;;;;10.27;5.68;;;11.30;67.30;;;;;;7394600;19;20013;-74
2023/03/02 12:14:53;;;;;;;10.35;5.38;;;11.20;68.30;;;;;;7397092;19;20000;-73
2023/03/02 12:17:25;;;;;;;10.70;6.05;;;11.50;68.30;;;;;;7394734;19;19947;-75
2023/03/02 12:19:54;;;;;;;11.88;5.68;;;11.30;68.00;;;;;;7379567;19;20354;-75
2023/03/02 12:22:34;;;;;;;10.20;5.85;;;11.30;69.00;;;;;;7405973;19;19922;-73
2023/03/02 12:25:06;;;;;;;13.13;5.65;;;11.20;68.40;;;;;;7407229;19;19918;-74
2023/03/02 12:27:38;;;;;;;12.02;5.82;;;11.40;68.30;;;;;;7372647;19;19974;-75
2023/03/02 12:30:31;;;;;;;11.73;5.82;;;12.10;67.90;;;;;;7402128;19;19922;-74
2023/03/02 12:33:09;;;;;;;9.77;5.47;;;12.80;66.20;;;;;;7401856;19;19914;-74
2023/03/02 12:35:35;;;;;;;10.13;5.65;;;12.90;65.50;;;;;;7408411;19;20342;-74
2023/03/02 12:38:13;;;;;;;12.05;6.43;;;13.00;65.70;;;;;;7405204;19;19943;-75
2023/03/02 12:41:04;;;;;;;10.88;6.22;;;13.30;64.40;;;;;;7405862;19;20319;-74
2023/03/02 12:43:32;;;;;;;10.43;5.80;;;14.40;63.80;;;;;;7405844;19;19922;-75
2023/03/02 12:46:27;;;;;;;13.52;5.97;;;15.00;61.90;;;;;;7406126;19;19922;-74
2023/03/02 12:48:58;;;;;;;8.82;6.15;;;14.20;62.40;;;;;;7408593;19;19938;-75
2023/03/02 12:51:28;;;;;;;9.05;5.97;;;13.70;62.90;;;;;;7406007;19;19982;-74
2023/03/02 12:54:14;;;;;;;12.27;6.90;;;13.90;63.00;;;;;;7408282;19;19919;-74
2023/03/02 12:56:39;;;;;;;10.77;6.35;;;14.00;63.60;;;;;;7398028;19;20371;-73
2023/03/02 12:59:05;;;;;;;8.82;5.75;;;13.30;63.40;;;;;;7402994;19;19942;-74
2023/03/02 13:01:32;;;;;;;11.25;6.47;;;15.40;62.00;;;;;;7404740;19;19915;-74